sensor_id;sensor_type;location;lat;lon;timestamp;pressure;altitude;pressure_sealevel;temperature;humidity
64679;BME280;51094;53.864;27.676;2023-02-13T00:00:33;100255.78;;;-0.07;69.48
64679;BME280;51094;53.864;27.676;2023-02-13T00:03:01;100125.41;;;-0.79;70.17
64679;BME280;51094;53.864;27.676;2023-02-13T00:05:28;100245.53;;;-0.06;70.10
64679;BME280;51094;53.864;27.676;2023-02-13T00:07:56;100180.44;;;-0.49;70.23
64679;BME280;51094;53.864;27.676;2023-02-13T00:10:23;100166.09;;;-0.62;70.64
64679;BME280;51094;53.864;27.676;2023-02-13T00:12:49;100190.56;;;-0.43;71.07
64679;BME280;51094;53.864;27.676;2023-02-13T00:15:16;100150.72;;;-0.58;70.50
64679;BME280;51094;53.864;27.676;2023-02-13T00:17:43;100144.84;;;-0.66;70.98
64679;BME280;51094;53.864;27.676;2023-02-13T00:20:10;100024.78;;;-1.37;71.55
64679;BME280;51094;53.864;27.676;2023-02-13T00:22:37;100241.25;;;-0.04;71.12
64679;BME280;51094;53.864;27.676;2023-02-13T00:25:05;100242.94;;;-0.03;71.35
64679;BME280;51094;53.864;27.676;2023-02-13T00:27:33;100242.94;;;-0.03;71.96
64679;BME280;51094;53.864;27.676;2023-02-13T00:30:00;100181.09;;;-0.34;71.87
64679;BME280;51094;53.864;27.676;2023-02-13T00:32:27;100241.13;;;0.03;72.02
64679;BME280;51094;53.864;27.676;2023-02-13T00:34:54;100227.59;;;-0.03;72.22
64679;BME280;51094;53.864;27.676;2023-02-13T00:37:22;100234.38;;;0.00;72.20
64679;BME280;51094;53.864;27.676;2023-02-13T00:39:50;100164.94;;;-0.39;72.22
64679;BME280;51094;53.864;27.676;2023-02-13T00:42:18;100139.59;;;-0.52;72.86
64679;BME280;51094;53.864;27.676;2023-02-13T00:44:45;100219.13;;;-0.08;72.86
64679;BME280;51094;53.864;27.676;2023-02-13T00:47:12;100161.56;;;-0.39;73.18
64679;BME280;51094;53.864;27.676;2023-02-13T00:49:40;100188.63;;;-0.23;73.80
64679;BME280;51094;53.864;27.676;2023-02-13T00:52:07;100203.00;;;-0.13;74.21
64679;BME280;51094;53.864;27.676;2023-02-13T00:54:34;100239.75;;;-0.23;74.19
64679;BME280;51094;53.864;27.676;2023-02-13T00:57:01;100185.31;;;-0.31;75.20
64679;BME280;51094;53.864;27.676;2023-02-13T00:59:28;100137.97;;;-0.59;75.70
64679;BME280;51094;53.864;27.676;2023-02-13T01:01:55;100065.13;;;-0.91;75.29
64679;BME280;51094;53.864;27.676;2023-02-13T01:04:22;99973.88;;;-1.49;75.25
64679;BME280;51094;53.864;27.676;2023-02-13T01:06:48;100174.97;;;-0.20;76.08
64679;BME280;51094;53.864;27.676;2023-02-13T01:09:15;100169.88;;;-0.22;75.75
64679;BME280;51094;53.864;27.676;2023-02-13T01:11:42;100171.56;;;-0.21;76.35
64679;BME280;51094;53.864;27.676;2023-02-13T01:14:09;100080.19;;;-0.70;75.72
64679;BME280;51094;53.864;27.676;2023-02-13T01:16:35;100168.16;;;-0.20;76.03
64679;BME280;51094;53.864;27.676;2023-02-13T01:19:03;100134.22;;;-0.34;76.44
64679;BME280;51094;53.864;27.676;2023-02-13T01:21:30;100098.88;;;-0.68;76.51
64679;BME280;51094;53.864;27.676;2023-02-13T01:23:57;100163.06;;;-0.23;77.41
64679;BME280;51094;53.864;27.676;2023-02-13T01:26:27;100063.25;;;-0.80;77.08
64679;BME280;51094;53.864;27.676;2023-02-13T01:28:54;100161.34;;;-0.22;77.21
64679;BME280;51094;53.864;27.676;2023-02-13T01:31:21;100083.63;;;-0.74;77.57
64679;BME280;51094;53.864;27.676;2023-02-13T01:33:49;100153.66;;;-0.19;77.40
64679;BME280;51094;53.864;27.676;2023-02-13T01:36:20;100139.38;;;-0.36;77.96
64679;BME280;51094;53.864;27.676;2023-02-13T01:38:47;100163.06;;;-0.23;78.58
64679;BME280;51094;53.864;27.676;2023-02-13T01:41:14;100157.03;;;-0.17;78.06
64679;BME280;51094;53.864;27.676;2023-02-13T01:43:47;100123.09;;;-0.28;77.96
64679;BME280;51094;53.864;27.676;2023-02-13T01:46:20;100100.38;;;-0.48;78.31
64679;BME280;51094;53.864;27.676;2023-02-13T01:48:48;100142.44;;;-0.09;78.38
64679;BME280;51094;53.864;27.676;2023-02-13T01:51:24;100140.78;;;-0.13;78.72
64679;BME280;51094;53.864;27.676;2023-02-13T01:54:17;100138.28;;;-0.16;78.38
64679;BME280;51094;53.864;27.676;2023-02-13T01:56:56;100043.72;;;-0.84;78.06
64679;BME280;51094;53.864;27.676;2023-02-13T01:59:32;100128.88;;;-0.14;78.79
64679;BME280;51094;53.864;27.676;2023-02-13T02:02:01;100046.81;;;-0.56;79.38
64679;BME280;51094;53.864;27.676;2023-02-13T02:04:33;100082.34;;;-0.39;79.13
64679;BME280;51094;53.864;27.676;2023-02-13T02:07:16;100102.69;;;-0.33;79.24
64679;BME280;51094;53.864;27.676;2023-02-13T02:09:45;100117.78;;;-0.13;79.37
64679;BME280;51094;53.864;27.676;2023-02-13T02:14:43;100116.88;;;-0.08;79.86
64679;BME280;51094;53.864;27.676;2023-02-13T02:17:11;100117.69;;;-0.06;79.48
64679;BME280;51094;53.864;27.676;2023-02-13T02:22:56;99990.84;;;-0.74;79.76
64679;BME280;51094;53.864;27.676;2023-02-13T02:25:37;100103.75;;;0.14;79.59
64679;BME280;51094;53.864;27.676;2023-02-13T02:31:37;100089.72;;;-0.18;81.98
64679;BME280;51094;53.864;27.676;2023-02-13T02:34:26;100001.28;;;-0.89;82.30
64679;BME280;51094;53.864;27.676;2023-02-13T02:37:23;100092.31;;;-0.19;82.64
64679;BME280;51094;53.864;27.676;2023-02-13T02:43:08;100060.97;;;-0.34;83.12
64679;BME280;51094;53.864;27.676;2023-02-13T02:45:52;99953.84;;;-1.09;83.18
64679;BME280;51094;53.864;27.676;2023-02-13T02:48:49;100096.38;;;-0.06;83.92
64679;BME280;51094;53.864;27.676;2023-02-13T02:54:44;100098.09;;;-0.07;84.25
64679;BME280;51094;53.864;27.676;2023-02-13T02:57:43;100116.94;;;-0.14;84.86
64679;BME280;51094;53.864;27.676;2023-02-13T03:00:32;100049.06;;;-0.36;85.05
64679;BME280;51094;53.864;27.676;2023-02-13T03:03:22;100140.75;;;-0.09;85.97
64679;BME280;51094;53.864;27.676;2023-02-13T03:06:15;100102.34;;;-0.06;86.06
64679;BME280;51094;53.864;27.676;2023-02-13T03:08:51;100089.88;;;-0.30;86.05
64679;BME280;51094;53.864;27.676;2023-02-13T03:11:38;100074.28;;;-0.10;86.78
64679;BME280;51094;53.864;27.676;2023-02-13T03:14:26;100025.22;;;-0.37;86.37
64679;BME280;51094;53.864;27.676;2023-02-13T03:16:55;100066.09;;;-0.35;87.05
64679;BME280;51094;53.864;27.676;2023-02-13T03:23:10;100035.25;;;-0.23;87.15
64679;BME280;51094;53.864;27.676;2023-02-13T03:26:34;100075.03;;;-0.02;87.44
64679;BME280;51094;53.864;27.676;2023-02-13T03:28:39;100061.28;;;0.02;87.59
64679;BME280;51094;53.864;27.676;2023-02-13T03:31:53;100065.72;;;-0.08;87.60
64679;BME280;51094;53.864;27.676;2023-02-13T03:34:31;100051.44;;;-0.21;88.05
64679;BME280;51094;53.864;27.676;2023-02-13T03:37:26;100005.31;;;-0.75;87.72
64679;BME280;51094;53.864;27.676;2023-02-13T03:40:19;99925.38;;;-0.80;87.72
64679;BME280;51094;53.864;27.676;2023-02-13T03:42:51;100004.69;;;-0.29;87.35
64679;BME280;51094;53.864;27.676;2023-02-13T03:45:31;100083.25;;;0.15;87.49
64679;BME280;51094;53.864;27.676;2023-02-13T03:48:40;100068.81;;;0.13;87.55
64679;BME280;51094;53.864;27.676;2023-02-13T03:51:35;100072.16;;;0.18;87.23
64679;BME280;51094;53.864;27.676;2023-02-13T03:54:10;100019.66;;;-0.05;86.87
64679;BME280;51094;53.864;27.676;2023-02-13T03:56:39;99998.47;;;-0.13;86.96
64679;BME280;51094;53.864;27.676;2023-02-13T03:59:30;100005.16;;;-0.03;86.86
64679;BME280;51094;53.864;27.676;2023-02-13T04:02:12;100033.56;;;0.31;87.53
64679;BME280;51094;53.864;27.676;2023-02-13T04:05:07;100042.00;;;0.37;87.20
64679;BME280;51094;53.864;27.676;2023-02-13T04:07:36;100017.50;;;0.23;86.93
64679;BME280;51094;53.864;27.676;2023-02-13T04:10:09;100049.44;;;0.49;86.93
64679;BME280;51094;53.864;27.676;2023-02-13T04:12:50;100065.53;;;0.55;86.83
64679;BME280;51094;53.864;27.676;2023-02-13T04:15:35;100007.44;;;0.13;86.74
64679;BME280;51094;53.864;27.676;2023-02-13T04:18:09;100041.28;;;0.28;86.30
64679;BME280;51094;53.864;27.676;2023-02-13T04:20:37;100057.56;;;0.74;86.14
64679;BME280;51094;53.864;27.676;2023-02-13T04:23:06;100059.34;;;0.69;86.10
64679;BME280;51094;53.864;27.676;2023-02-13T04:25:36;99940.50;;;-0.11;85.72
64679;BME280;51094;53.864;27.676;2023-02-13T04:28:04;99872.69;;;-0.85;86.13
64679;BME280;51094;53.864;27.676;2023-02-13T04:30:31;100015.69;;;0.30;86.40
64679;BME280;51094;53.864;27.676;2023-02-13T04:32:57;100070.44;;;0.69;86.92
64679;BME280;51094;53.864;27.676;2023-02-13T04:35:24;99999.63;;;0.22;86.86
64679;BME280;51094;53.864;27.676;2023-02-13T04:37:51;99957.44;;;-0.04;86.71
64679;BME280;51094;53.864;27.676;2023-02-13T04:40:18;100037.66;;;0.42;87.38
64679;BME280;51094;53.864;27.676;2023-02-13T04:42:47;100068.06;;;0.58;87.96
64679;BME280;51094;53.864;27.676;2023-02-13T04:45:15;99997.19;;;0.13;88.11
64679;BME280;51094;53.864;27.676;2023-02-13T04:47:42;100079.22;;;0.54;88.45
64679;BME280;51094;53.864;27.676;2023-02-13T04:50:09;99987.31;;;-0.07;88.57
64679;BME280;51094;53.864;27.676;2023-02-13T04:52:36;99810.25;;;-1.21;88.98
64679;BME280;51094;53.864;27.676;2023-02-13T04:55:03;99984.88;;;-0.15;89.28
64679;BME280;51094;53.864;27.676;2023-02-13T04:57:29;100040.50;;;0.23;89.08
64679;BME280;51094;53.864;27.676;2023-02-13T04:59:56;99930.78;;;-0.43;89.21
64679;BME280;51094;53.864;27.676;2023-02-13T05:02:23;100083.47;;;0.55;89.74
64679;BME280;51094;53.864;27.676;2023-02-13T05:04:50;99989.88;;;-0.07;89.24
64679;BME280;51094;53.864;27.676;2023-02-13T05:07:17;100036.06;;;0.35;89.49
64679;BME280;51094;53.864;27.676;2023-02-13T05:09:43;99959.38;;;-0.19;89.75
64679;BME280;51094;53.864;27.676;2023-02-13T05:12:10;100066.38;;;0.57;89.75
64679;BME280;51094;53.864;27.676;2023-02-13T05:14:37;100109.72;;;0.66;89.65
64679;BME280;51094;53.864;27.676;2023-02-13T05:17:04;100026.47;;;0.46;89.53
64679;BME280;51094;53.864;27.676;2023-02-13T05:19:31;100036.50;;;0.58;89.00
64679;BME280;51094;53.864;27.676;2023-02-13T05:21:58;100059.34;;;0.69;88.94
64679;BME280;51094;53.864;27.676;2023-02-13T05:24:43;100012.91;;;0.42;89.19
64679;BME280;51094;53.864;27.676;2023-02-13T05:27:10;100084.81;;;0.76;89.42
64679;BME280;51094;53.864;27.676;2023-02-13T05:29:37;99910.91;;;-0.24;89.01
64679;BME280;51094;53.864;27.676;2023-02-13T05:32:04;100078.97;;;0.68;89.50
64679;BME280;51094;53.864;27.676;2023-02-13T05:34:31;100063.78;;;0.59;89.43
64679;BME280;51094;53.864;27.676;2023-02-13T05:36:57;100078.09;;;0.71;89.32
64679;BME280;51094;53.864;27.676;2023-02-13T05:39:24;100040.97;;;0.45;89.37
64679;BME280;51094;53.864;27.676;2023-02-13T05:41:51;99901.09;;;-0.48;89.81
64679;BME280;51094;53.864;27.676;2023-02-13T05:44:18;99981.16;;;0.03;89.63
64679;BME280;51094;53.864;27.676;2023-02-13T05:46:45;99945.63;;;-0.11;90.16
64679;BME280;51094;53.864;27.676;2023-02-13T05:49:13;99974.31;;;0.05;89.95
64679;BME280;51094;53.864;27.676;2023-02-13T05:51:41;100013.94;;;0.32;90.04
64679;BME280;51094;53.864;27.676;2023-02-13T05:54:08;100018.13;;;0.36;89.65
64679;BME280;51094;53.864;27.676;2023-02-13T05:56:35;99857.88;;;-0.62;89.43
64679;BME280;51094;53.864;27.676;2023-02-13T05:59:02;99780.28;;;-1.07;89.82
64679;BME280;51094;53.864;27.676;2023-02-13T06:01:29;100022.19;;;0.46;89.74
64679;BME280;51094;53.864;27.676;2023-02-13T06:03:56;99938.59;;;0.00;89.42
64679;BME280;51094;53.864;27.676;2023-02-13T06:06:26;100074.22;;;0.94;90.18
64679;BME280;51094;53.864;27.676;2023-02-13T06:08:53;99955.78;;;-0.08;89.78
64679;BME280;51094;53.864;27.676;2023-02-13T06:11:20;100010.16;;;0.51;89.87
64679;BME280;51094;53.864;27.676;2023-02-13T06:13:47;100074.16;;;0.99;89.44
64679;BME280;51094;53.864;27.676;2023-02-13T06:16:13;100072.44;;;0.98;89.82
64679;BME280;51094;53.864;27.676;2023-02-13T06:18:40;99921.47;;;0.06;89.77
64679;BME280;51094;53.864;27.676;2023-02-13T06:21:07;100078.44;;;0.97;89.67
64679;BME280;51094;53.864;27.676;2023-02-13T06:23:35;100065.59;;;1.00;89.74
64679;BME280;51094;53.864;27.676;2023-02-13T06:26:06;99842.00;;;-0.31;89.69
64679;BME280;51094;53.864;27.676;2023-02-13T06:28:34;99921.47;;;0.06;89.72
64679;BME280;51094;53.864;27.676;2023-02-13T06:31:01;100067.09;;;1.10;89.77
64679;BME280;51094;53.864;27.676;2023-02-13T06:33:28;99950.53;;;0.48;90.04
64679;BME280;51094;53.864;27.676;2023-02-13T06:35:55;99901.44;;;0.29;89.50
64679;BME280;51094;53.864;27.676;2023-02-13T06:38:22;99997.38;;;0.96;89.45
64679;BME280;51094;53.864;27.676;2023-02-13T06:40:50;99836.47;;;-0.07;89.13
64679;BME280;51094;53.864;27.676;2023-02-13T06:43:27;99940.94;;;0.59;89.16
64679;BME280;51094;53.864;27.676;2023-02-13T06:45:54;99893.91;;;0.21;89.77
64679;BME280;51094;53.864;27.676;2023-02-13T06:48:21;100045.47;;;1.25;89.44
64679;BME280;51094;53.864;27.676;2023-02-13T06:50:48;100037.59;;;1.32;89.69
64679;BME280;51094;53.864;27.676;2023-02-13T06:53:18;100034.16;;;1.33;89.56
64679;BME280;51094;53.864;27.676;2023-02-13T06:55:51;99978.56;;;0.97;89.32
64679;BME280;51094;53.864;27.676;2023-02-13T06:58:20;100045.16;;;1.39;89.10
64679;BME280;51094;53.864;27.676;2023-02-13T07:00:47;99981.94;;;0.99;89.23
64679;BME280;51094;53.864;27.676;2023-02-13T07:03:14;100037.38;;;1.43;89.22
64679;BME280;51094;53.864;27.676;2023-02-13T07:05:42;100045.09;;;1.42;88.88
64679;BME280;51094;53.864;27.676;2023-02-13T07:08:10;99968.22;;;1.03;89.41
64679;BME280;51094;53.864;27.676;2023-02-13T07:10:38;99876.81;;;0.66;88.91
64679;BME280;51094;53.864;27.676;2023-02-13T07:13:07;100038.66;;;1.64;89.59
64679;BME280;51094;53.864;27.676;2023-02-13T07:15:35;100030.84;;;1.70;88.26
64679;BME280;51094;53.864;27.676;2023-02-13T07:18:11;99827.63;;;0.51;87.71
64679;BME280;51094;53.864;27.676;2023-02-13T07:20:38;100020.38;;;1.78;88.49
64679;BME280;51094;53.864;27.676;2023-02-13T07:23:05;100021.09;;;1.84;88.00
64679;BME280;51094;53.864;27.676;2023-02-13T07:25:33;99892.59;;;1.25;88.11
64679;BME280;51094;53.864;27.676;2023-02-13T07:28:04;100010.47;;;1.99;87.83
64679;BME280;51094;53.864;27.676;2023-02-13T07:30:33;100036.00;;;2.06;87.94
64679;BME280;51094;53.864;27.676;2023-02-13T07:33:01;99929.50;;;1.54;86.51
64679;BME280;51094;53.864;27.676;2023-02-13T07:35:28;100007.91;;;1.99;86.86
64679;BME280;51094;53.864;27.676;2023-02-13T07:37:56;99974.19;;;1.79;87.18
64679;BME280;51094;53.864;27.676;2023-02-13T07:40:22;99974.13;;;1.82;86.84
64679;BME280;51094;53.864;27.676;2023-02-13T07:42:49;100001.75;;;2.07;86.52
64679;BME280;51094;53.864;27.676;2023-02-13T07:45:16;100027.47;;;2.04;85.98
64679;BME280;51094;53.864;27.676;2023-02-13T07:47:43;100014.72;;;2.00;86.06
64679;BME280;51094;53.864;27.676;2023-02-13T07:50:10;99892.34;;;1.34;86.54
64679;BME280;51094;53.864;27.676;2023-02-13T07:52:37;99963.50;;;1.62;85.74
64679;BME280;51094;53.864;27.676;2023-02-13T07:55:05;99927.97;;;1.47;85.93
64679;BME280;51094;53.864;27.676;2023-02-13T07:57:34;100016.34;;;2.05;86.33
64679;BME280;51094;53.864;27.676;2023-02-13T08:00:02;99847.72;;;1.08;85.76
64679;BME280;51094;53.864;27.676;2023-02-13T08:02:37;100024.94;;;2.02;85.89
64679;BME280;51094;53.864;27.676;2023-02-13T08:05:04;99915.38;;;1.36;85.65
64679;BME280;51094;53.864;27.676;2023-02-13T08:07:31;100034.97;;;2.13;85.73
64679;BME280;51094;53.864;27.676;2023-02-13T08:09:58;99956.31;;;1.76;85.44
64679;BME280;51094;53.864;27.676;2023-02-13T08:12:43;100034.91;;;2.16;85.59
64679;BME280;51094;53.864;27.676;2023-02-13T08:15:12;100032.22;;;2.19;85.25
64679;BME280;51094;53.864;27.676;2023-02-13T08:17:42;99878.84;;;1.29;84.79
64679;BME280;51094;53.864;27.676;2023-02-13T08:20:09;100030.53;;;2.18;84.88
64679;BME280;51094;53.864;27.676;2023-02-13T08:22:37;100002.13;;;1.91;84.49
64679;BME280;51094;53.864;27.676;2023-02-13T08:25:05;99972.94;;;1.95;85.02
64679;BME280;51094;53.864;27.676;2023-02-13T08:27:35;100003.19;;;2.17;85.16
64679;BME280;51094;53.864;27.676;2023-02-13T08:30:03;99889.41;;;1.51;85.11
64679;BME280;51094;53.864;27.676;2023-02-13T08:32:31;100007.28;;;2.24;84.27
64679;BME280;51094;53.864;27.676;2023-02-13T08:35:17;99965.00;;;2.06;84.69
64679;BME280;51094;53.864;27.676;2023-02-13T08:37:44;99924.88;;;1.70;84.72
64679;BME280;51094;53.864;27.676;2023-02-13T08:40:13;99799.91;;;1.08;84.14
64679;BME280;51094;53.864;27.676;2023-02-13T08:42:40;99981.59;;;2.25;84.94
64679;BME280;51094;53.864;27.676;2023-02-13T08:45:07;99997.91;;;2.23;84.74
64679;BME280;51094;53.864;27.676;2023-02-13T08:47:37;99997.91;;;2.23;84.84
64679;BME280;51094;53.864;27.676;2023-02-13T08:50:04;99979.16;;;2.21;85.10
64679;BME280;51094;53.864;27.676;2023-02-13T08:52:31;99782.38;;;0.91;84.72
64679;BME280;51094;53.864;27.676;2023-02-13T08:54:58;99964.88;;;2.11;85.19
64679;BME280;51094;53.864;27.676;2023-02-13T08:57:24;99967.28;;;2.17;85.15
64679;BME280;51094;53.864;27.676;2023-02-13T08:59:51;99796.69;;;1.00;85.28
64679;BME280;51094;53.864;27.676;2023-02-13T09:02:18;99965.63;;;2.16;85.30
64679;BME280;51094;53.864;27.676;2023-02-13T09:04:45;99970.63;;;2.19;85.26
64679;BME280;51094;53.864;27.676;2023-02-13T09:07:12;99728.06;;;0.79;85.32
64679;BME280;51094;53.864;27.676;2023-02-13T09:09:39;99787.84;;;1.13;85.52
64679;BME280;51094;53.864;27.676;2023-02-13T09:12:06;99935.56;;;1.85;85.18
64679;BME280;51094;53.864;27.676;2023-02-13T09:14:32;99960.91;;;2.31;85.31
64679;BME280;51094;53.864;27.676;2023-02-13T09:17:00;99854.16;;;1.61;84.60
64679;BME280;51094;53.864;27.676;2023-02-13T09:19:27;99854.13;;;1.62;84.59
64679;BME280;51094;53.864;27.676;2023-02-13T09:21:53;99948.81;;;2.37;84.94
64679;BME280;51094;53.864;27.676;2023-02-13T09:24:20;99948.72;;;2.40;84.55
64679;BME280;51094;53.864;27.676;2023-02-13T09:26:47;99812.78;;;1.41;84.40
64679;BME280;51094;53.864;27.676;2023-02-13T09:29:14;99826.69;;;1.66;84.57
64679;BME280;51094;53.864;27.676;2023-02-13T09:31:40;99925.50;;;2.44;84.58
64679;BME280;51094;53.864;27.676;2023-02-13T09:34:08;99820.34;;;1.79;84.13
64679;BME280;51094;53.864;27.676;2023-02-13T09:36:35;99956.56;;;2.66;83.44
64679;BME280;51094;53.864;27.676;2023-02-13T09:39:02;99924.47;;;2.51;83.22
64679;BME280;51094;53.864;27.676;2023-02-13T09:41:35;99875.41;;;1.98;83.82
64679;BME280;51094;53.864;27.676;2023-02-13T09:44:14;99900.59;;;2.48;83.39
64679;BME280;51094;53.864;27.676;2023-02-13T09:47:30;99822.75;;;1.85;83.10
64679;BME280;51094;53.864;27.676;2023-02-13T09:50:01;99946.38;;;2.63;83.15
64679;BME280;51094;53.864;27.676;2023-02-13T09:52:34;99865.91;;;2.33;83.60
64679;BME280;51094;53.864;27.676;2023-02-13T09:55:03;99873.63;;;2.62;84.16
64679;BME280;51094;53.864;27.676;2023-02-13T09:57:43;99945.69;;;2.87;82.01
64679;BME280;51094;53.864;27.676;2023-02-13T10:00:20;99947.56;;;2.82;82.72
64679;BME280;51094;53.864;27.676;2023-02-13T10:16:13;99883.44;;;2.50;82.75
64679;BME280;51094;53.864;27.676;2023-02-13T10:18:49;99953.66;;;2.78;82.42
64679;BME280;51094;53.864;27.676;2023-02-13T10:21:21;99991.22;;;2.82;82.91
64679;BME280;51094;53.864;27.676;2023-02-13T10:23:57;99954.28;;;2.86;83.14
64679;BME280;51094;53.864;27.676;2023-02-13T10:26:34;99996.16;;;2.90;82.54
64679;BME280;51094;53.864;27.676;2023-02-13T10:29:23;99953.25;;;2.93;82.53
64679;BME280;51094;53.864;27.676;2023-02-13T10:32:17;99851.88;;;2.46;82.54
64679;BME280;51094;53.864;27.676;2023-02-13T10:34:46;99967.47;;;3.04;83.11
64679;BME280;51094;53.864;27.676;2023-02-13T10:37:22;99942.19;;;3.47;82.78
64679;BME280;51094;53.864;27.676;2023-02-13T10:39:51;99940.81;;;3.63;82.01
64679;BME280;51094;53.864;27.676;2023-02-13T10:45:30;99946.00;;;3.62;79.99
64679;BME280;51094;53.864;27.676;2023-02-13T10:48:22;99939.97;;;3.37;79.87
64679;BME280;51094;53.864;27.676;2023-02-13T10:51:00;99920.66;;;3.23;80.63
64679;BME280;51094;53.864;27.676;2023-02-13T10:56:24;99933.09;;;3.08;81.04
64679;BME280;51094;53.864;27.676;2023-02-13T10:59:09;99811.13;;;2.34;81.53
64679;BME280;51094;53.864;27.676;2023-02-13T11:04:16;99907.75;;;2.97;82.48
64679;BME280;51094;53.864;27.676;2023-02-13T11:06:52;99870.44;;;2.56;82.29
64679;BME280;51094;53.864;27.676;2023-02-13T11:09:25;99914.78;;;2.90;82.99
64679;BME280;51094;53.864;27.676;2023-02-13T11:12:32;99817.81;;;2.40;82.90
64679;BME280;51094;53.864;27.676;2023-02-13T11:15:16;99642.22;;;1.30;83.01
64679;BME280;51094;53.864;27.676;2023-02-13T11:17:45;99908.34;;;3.05;83.10
64679;BME280;51094;53.864;27.676;2023-02-13T11:20:26;99905.41;;;3.17;82.98
64679;BME280;51094;53.864;27.676;2023-02-13T11:22:55;99903.59;;;3.21;82.16
64679;BME280;51094;53.864;27.676;2023-02-13T11:25:37;99836.41;;;2.77;82.23
64679;BME280;51094;53.864;27.676;2023-02-13T11:28:10;99894.16;;;3.21;82.37
64679;BME280;51094;53.864;27.676;2023-02-13T11:30:43;99724.94;;;2.27;82.14
64679;BME280;51094;53.864;27.676;2023-02-13T11:35:46;99878.88;;;3.17;81.99
64679;BME280;51094;53.864;27.676;2023-02-13T11:38:19;99878.03;;;3.16;82.20
64679;BME280;51094;53.864;27.676;2023-02-13T11:41:11;99879.66;;;3.19;82.42
64679;BME280;51094;53.864;27.676;2023-02-13T11:43:57;99874.34;;;3.25;82.47
64679;BME280;51094;53.864;27.676;2023-02-13T11:46:29;99866.34;;;3.34;82.62
64679;BME280;51094;53.864;27.676;2023-02-13T11:49:22;99827.81;;;3.06;81.90
64679;BME280;51094;53.864;27.676;2023-02-13T11:51:52;99786.91;;;2.72;82.03
64679;BME280;51094;53.864;27.676;2023-02-13T11:54:35;99842.88;;;3.17;82.21
64679;BME280;51094;53.864;27.676;2023-02-13T11:57:20;99849.00;;;3.13;82.51
64679;BME280;51094;53.864;27.676;2023-02-13T11:59:50;99773.38;;;2.67;82.68
64679;BME280;51094;53.864;27.676;2023-02-13T12:02:18;99857.34;;;3.21;82.45
64679;BME280;51094;53.864;27.676;2023-02-13T12:04:48;99768.03;;;2.73;82.30
64679;BME280;51094;53.864;27.676;2023-02-13T12:07:31;99850.28;;;3.27;82.30
64679;BME280;51094;53.864;27.676;2023-02-13T12:10:14;99834.72;;;3.32;82.17
64679;BME280;51094;53.864;27.676;2023-02-13T12:15:18;99834.09;;;3.50;81.95
64679;BME280;51094;53.864;27.676;2023-02-13T12:17:50;99679.16;;;2.69;81.61
64679;BME280;51094;53.864;27.676;2023-02-13T12:20:19;99761.25;;;3.25;81.92
64679;BME280;51094;53.864;27.676;2023-02-13T12:28:10;99804.09;;;3.76;80.71
64679;BME280;51094;53.864;27.676;2023-02-13T12:39:34;99775.44;;;3.37;81.20
64679;BME280;51094;53.864;27.676;2023-02-13T12:45:27;99802.25;;;3.54;80.77
64679;BME280;51094;53.864;27.676;2023-02-13T12:48:08;99801.41;;;3.54;80.56
64679;BME280;51094;53.864;27.676;2023-02-13T12:50:53;99762.19;;;3.22;80.88
64679;BME280;51094;53.864;27.676;2023-02-13T12:53:33;99782.25;;;3.38;81.83
64679;BME280;51094;53.864;27.676;2023-02-13T12:56:19;99786.66;;;3.34;81.48
64679;BME280;51094;53.864;27.676;2023-02-13T12:59:21;99668.59;;;2.52;81.52
64679;BME280;51094;53.864;27.676;2023-02-13T13:13:34;99776.78;;;3.22;82.33
64679;BME280;51094;53.864;27.676;2023-02-13T13:16:26;99780.09;;;3.25;81.97
64679;BME280;51094;53.864;27.676;2023-02-13T13:21:40;99779.97;;;3.28;82.06
64679;BME280;51094;53.864;27.676;2023-02-13T13:27:27;99754.78;;;3.13;81.79
64679;BME280;51094;53.864;27.676;2023-02-13T13:30:05;99726.16;;;2.99;81.85
64679;BME280;51094;53.864;27.676;2023-02-13T13:32:32;99775.63;;;3.30;81.49
64679;BME280;51094;53.864;27.676;2023-02-13T13:35:01;99775.94;;;3.21;81.95
64679;BME280;51094;53.864;27.676;2023-02-13T13:37:39;99779.38;;;3.20;82.10
64679;BME280;51094;53.864;27.676;2023-02-13T13:42:50;99765.31;;;3.32;82.29
64679;BME280;51094;53.864;27.676;2023-02-13T13:45:29;99771.44;;;3.28;81.65
64679;BME280;51094;53.864;27.676;2023-02-13T13:50:49;99759.16;;;3.10;82.14
64679;BME280;51094;53.864;27.676;2023-02-13T13:53:18;99827.63;;;3.12;82.53
64679;BME280;51094;53.864;27.676;2023-02-13T14:01:29;99776.69;;;2.98;82.87
64679;BME280;51094;53.864;27.676;2023-02-13T14:04:01;99723.88;;;2.62;82.99
64679;BME280;51094;53.864;27.676;2023-02-13T14:11:54;99781.22;;;2.90;83.13
64679;BME280;51094;53.864;27.676;2023-02-13T14:17:00;99624.34;;;1.60;83.94
64679;BME280;51094;53.864;27.676;2023-02-13T14:19:39;99788.09;;;2.90;83.67
64679;BME280;51094;53.864;27.676;2023-02-13T14:22:26;99637.84;;;1.94;83.91
64679;BME280;51094;53.864;27.676;2023-02-13T14:25:03;99678.94;;;2.21;84.36
64679;BME280;51094;53.864;27.676;2023-02-13T14:30:00;99722.63;;;2.47;84.46
64679;BME280;51094;53.864;27.676;2023-02-13T14:32:32;99776.59;;;2.74;84.87
64679;BME280;51094;53.864;27.676;2023-02-13T14:35:04;99656.69;;;1.93;85.15
64679;BME280;51094;53.864;27.676;2023-02-13T14:37:53;99694.34;;;2.21;85.21
64679;BME280;51094;53.864;27.676;2023-02-13T14:45:52;99759.13;;;2.85;84.79
64679;BME280;51094;53.864;27.676;2023-02-13T14:48:27;99772.00;;;2.83;84.77
64679;BME280;51094;53.864;27.676;2023-02-13T14:50:58;99767.94;;;2.76;84.55
64679;BME280;51094;53.864;27.676;2023-02-13T14:53:29;99773.13;;;2.75;84.59
64679;BME280;51094;53.864;27.676;2023-02-13T14:56:11;99721.41;;;2.31;84.64
64679;BME280;51094;53.864;27.676;2023-02-13T15:01:42;99666.50;;;2.09;84.70
64679;BME280;51094;53.864;27.676;2023-02-13T15:04:34;99777.56;;;2.70;84.68
64679;BME280;51094;53.864;27.676;2023-02-13T15:07:06;99735.25;;;2.55;84.77
64679;BME280;51094;53.864;27.676;2023-02-13T15:09:39;99773.94;;;2.77;84.35
64679;BME280;51094;53.864;27.676;2023-02-13T15:12:35;99775.09;;;2.66;84.39